createdAt,value
2018-07-20T00:15:43.885Z,52.4
2018-07-20T00:32:29.897Z,52.0
2018-07-20T00:49:15.907Z,52.4
2018-07-20T01:06:01.514Z,53.2
2018-07-20T01:22:47.413Z,54.0
2018-07-20T01:39:31.917Z,54.0
2018-07-20T01:56:16.749Z,55.2
2018-07-20T02:13:01.478Z,55.2
2018-07-20T02:29:46.002Z,56.4
2018-07-20T02:46:30.497Z,56.8
2018-07-20T03:03:15.028Z,57.2
2018-07-20T03:19:58.853Z,57.6
2018-07-20T03:36:42.623Z,58.0
2018-07-20T03:53:26.521Z,58.0
2018-07-20T04:10:10.439Z,58.0
2018-07-20T04:26:54.316Z,58.4
2018-07-20T04:43:38.545Z,58.8
2018-07-20T05:00:23.448Z,58.8
2018-07-20T05:17:07.789Z,58.4
2018-07-20T05:33:52.920Z,58.0
2018-07-20T05:50:38.054Z,57.6
2018-07-20T06:04:02.566Z,57.6
2018-07-20T06:20:48.710Z,56.8
2018-07-20T06:34:13.832Z,56.4
2018-07-20T06:40:56.569Z,56.0
2018-07-20T06:57:44.002Z,54.8
2018-07-20T07:11:10.238Z,54.4
2018-07-20T07:21:15.233Z,54.0
2018-07-20T07:31:20.546Z,52.8
2018-07-20T07:44:48.099Z,52.0
2018-07-20T08:01:38.236Z,50.4
2018-07-20T08:18:28.804Z,49.6
2018-07-20T08:25:13.376Z,48.8
2018-07-20T08:38:42.862Z,47.6
2018-07-20T08:55:35.470Z,46.4
2018-07-20T09:12:28.855Z,44.8
2018-07-20T09:27:41.560Z,44.0
2018-07-20T09:44:36.239Z,42.4
2018-07-20T09:56:26.547Z,42.0
2018-07-20T10:04:53.948Z,42.0
2018-07-20T10:21:48.885Z,41.6
2018-07-20T10:38:45.433Z,40.4
2018-07-20T10:47:12.096Z,40.0
2018-07-20T11:04:08.171Z,39.2
2018-07-20T11:21:04.153Z,38.0
2018-07-20T11:36:18.732Z,37.6
2018-07-20T11:53:21.847Z,37.2
2018-07-20T12:10:12.305Z,37.2
2018-07-20T12:27:08.963Z,36.8
2018-07-20T12:30:32.338Z,36.0
2018-07-20T12:47:29.783Z,36.4
2018-07-20T13:04:27.131Z,35.6
2018-07-20T13:21:25.022Z,35.2
2018-07-20T13:38:22.628Z,35.2
2018-07-20T13:50:15.014Z,35.2
2018-07-20T14:07:12.586Z,35.2
2018-07-20T14:24:10.296Z,34.4
2018-07-20T14:41:08.054Z,34.0
2018-07-20T14:58:05.935Z,34.0
2018-07-20T15:15:03.746Z,34.0
2018-07-20T15:32:01.389Z,34.4
2018-07-20T15:48:59.030Z,34.0
2018-07-20T16:05:57.347Z,34.0
2018-07-20T16:19:31.072Z,33.6
2018-07-20T16:36:29.250Z,33.6
2018-07-20T16:50:03.652Z,33.2
2018-07-20T17:07:01.579Z,33.2
2018-07-20T17:20:37.567Z,32.0
2018-07-20T17:37:36.930Z,31.2
2018-07-20T17:51:12.219Z,31.6
2018-07-20T17:57:59.413Z,32.0
2018-07-20T18:04:46.711Z,32.0
2018-07-20T18:16:38.913Z,32.8
2018-07-20T18:30:12.491Z,33.2
2018-07-20T18:47:08.779Z,33.6
2018-07-20T18:57:17.604Z,34.4
2018-07-20T19:14:12.019Z,34.8
2018-07-20T19:31:05.635Z,34.8
2018-07-20T20:04:51.541Z,35.6
2018-07-20T20:21:44.326Z,36.0
2018-07-20T20:38:36.099Z,36.4
2018-07-20T20:55:27.869Z,36.8
2018-07-20T21:12:19.381Z,38.0
2018-07-20T21:29:10.704Z,37.6
2018-07-20T21:46:01.427Z,38.8
2018-07-20T22:02:52.385Z,39.2
2018-07-20T22:19:42.222Z,39.6
2018-07-20T22:36:32.316Z,40.4
2018-07-20T22:53:22.234Z,41.2
2018-07-20T23:10:12.145Z,41.6
2018-07-20T23:27:02.033Z,42.4
2018-07-20T23:43:51.419Z,43.6
